Burson, California
Current Conditions -  °F | °C
As of 6:55 AM on Sunday 23 Nov 2014 (Local Time) from KO22 Reporting Station
Clear Clear  
Wind Chill: 32°   Ceiling: Unl
Heat Index: 36°   Visibility: 10mi
Dew Point: 36°   Wind: 5mph
Humidity: 100%   Direction: 360°N
Pressure: 30.21"   Gusts: NA
Location:  38.2°N, 120.89°W
Report Text: KO22 231455Z AUTO 36004KT 10SM CLR 02/02 A3021 RMK AO1
Loading
Personal Weather Stations






























Interactive Weather Map New forecast layout! Learn more

10-Day Weather Forecast

Advertisements
Track Severe Weather on mobile